Abbott Park, IL

8:01 AM CDT on May 06, 2015 (GMT -0500)
Kenosha Regional | | Change Station
CLOSE
Current Station
Airport
Location: Kenosha,
Elevation: 741 ft
Nearby Weather Stations
Active Advisory: Dense Fog Advisory Active Notice: Local Storm Report

Elev 741 ft 42.60 °N, 87.94 °W | Updated 8 minutes ago

Fog
Fog
49 °F
Feels Like 49 °F
N
4
Wind Variable Wind from East

Today
High -- | Low -- °F
--% Chance of Precip.
Yesterday
High -- | Low -- °F
Precip. -- in
5:40 AM 7:56 PM
Waning Gibbous, 94% visible
Pressure 30.22 in
Visibility 0.2 miles
Clouds
Dew Point 48 °F
Humidity 97%
Rainfall 0.00 in
Snow Depth Not available.
UV Not available.
Pollen 7.80 out of 12
Air Quality Not available.
Flu Activity Local Activity
METAR KENW 061253Z 09003KT 1/4SM FG VV002 09/09 A3021 RMK AO2 SLP232 T00940089

More Conditions Fewer Conditions

Pressure 30.22 in
Visibility 0.2 miles
Clouds
Dew Point 48 °F
Humidity 97%
Rainfall 0.00 in
Snow Depth Not available.
UV Not available.
Pollen 7.80 out of 12
Air Quality Not available.
Flu Activity Local Activity
METAR KENW 061253Z 09003KT 1/4SM FG VV002 09/09 A3021 RMK AO2 SLP232 T00940089

More Conditions Fewer Conditions

10-Day Weather Forecast

Almanac

Astronomy

May. 06, 2015 Rise Set
Actual Time
Civil Twilight
Nautical Twilight
Astronomical Twilight
Moon
Length of Visible Light
Length of Day
Tomorrow will be .
, % of the Moon is Illuminated

Today's Extremes

State Highs State Lows

Community

WunderPhotos

Upload Photos

1,818,892 photos uploaded!

WunderBlogs® & News

Nearby

Air Quality

  Air Quality AQ Index Pollutant
Not available.

Snow Depth

Station Depth Elevation

Earthquake Activity

City Distance Mag. Time & Date
Minimum magnitude displayed is 2.5.

Coastal Water Temperatures

Place Temperature

Stations

Nearby Weather Stations

Station Location Temp. Windchill Dew Point Humidity Wind Precip. Elev Updated Type
                   
Dense Fog Advisory
Statement as of 4:09 AM CDT on May 06, 2015

... Dense fog advisory remains in effect until 11 am CDT this
morning...

* visibility... a quarter mile or less... especially near Lake
Michigan.

* Impacts... low and sharply varying visibilities will make travel
hazardous in places during the morning commute... including
possibly on parts of Lake Shore drive.

Precautionary/preparedness actions...

A dense fog advisory means visibilities will frequently be
reduced to less than one quarter mile. If driving... slow down...
use your headlights... and leave plenty of distance ahead of you.



Mtf